createdAt,value
2023-05-01T00:00:05.345Z,63.45
2023-05-01T00:01:03.787Z,63.47
2023-05-01T00:02:03.804Z,63.56
2023-05-01T00:03:03.986Z,63.57
2023-05-01T00:04:03.938Z,63.53
2023-05-01T00:05:03.907Z,63.60
2023-05-01T00:06:03.947Z,63.56
2023-05-01T00:07:03.912Z,63.56
2023-05-01T00:08:04.007Z,63.43
2023-05-01T00:09:03.991Z,63.65
2023-05-01T00:10:04.028Z,63.76
2023-05-01T00:11:04.039Z,63.67
2023-05-01T00:12:04.049Z,63.79
2023-05-01T00:13:04.062Z,63.67
2023-05-01T00:14:04.084Z,63.59
2023-05-01T00:15:04.137Z,63.54
2023-05-01T00:16:04.205Z,63.47
2023-05-01T00:17:04.187Z,63.56
2023-05-01T00:18:04.350Z,63.53
2023-05-01T00:19:04.265Z,63.41
2023-05-01T00:20:04.247Z,63.36
2023-05-01T00:21:04.286Z,63.29
2023-05-01T00:22:04.279Z,63.22
2023-05-01T00:23:04.335Z,63.20
2023-05-01T00:24:04.327Z,62.98
2023-05-01T00:25:04.368Z,62.79
2023-05-01T00:26:04.367Z,62.78
2023-05-01T00:27:04.370Z,62.77
2023-05-01T00:28:04.396Z,62.83
2023-05-01T00:29:04.438Z,62.85
2023-05-01T00:30:04.458Z,62.63
2023-05-01T00:31:04.494Z,62.85
2023-05-01T00:32:04.647Z,62.81
2023-05-01T00:33:04.606Z,62.88
2023-05-01T00:34:04.587Z,62.82
2023-05-01T00:35:04.638Z,62.65
2023-05-01T00:36:04.687Z,62.73
2023-05-01T00:37:04.732Z,63.01
2023-05-01T00:38:04.720Z,63.01
2023-05-01T00:39:04.808Z,62.92
2023-05-01T00:40:04.845Z,63.00
2023-05-01T00:41:04.813Z,63.13
2023-05-01T00:42:04.843Z,63.29
2023-05-01T00:43:04.858Z,63.55
2023-05-01T00:44:04.883Z,63.71
2023-05-01T00:45:04.914Z,63.80
2023-05-01T00:46:05.007Z,64.04
2023-05-01T00:47:05.055Z,64.14
2023-05-01T00:48:05.148Z,64.23
2023-05-01T00:49:05.337Z,64.28
2023-05-01T00:50:05.079Z,64.35
2023-05-01T00:51:05.130Z,64.20
2023-05-01T00:52:05.146Z,63.98
2023-05-01T00:53:05.236Z,63.92
2023-05-01T00:54:05.259Z,63.88
2023-05-01T00:55:05.252Z,63.90
2023-05-01T00:56:05.398Z,63.84
2023-05-01T00:57:05.270Z,63.74
2023-05-01T00:58:05.322Z,63.75
2023-05-01T00:59:05.366Z,63.71
2023-05-01T01:00:05.410Z,63.76
2023-05-01T01:01:05.513Z,63.75
2023-05-01T01:02:05.514Z,63.68
2023-05-01T01:03:05.496Z,63.71
2023-05-01T01:04:05.562Z,63.96
2023-05-01T01:05:05.581Z,64.24
2023-05-01T01:06:05.707Z,64.29
2023-05-01T01:07:05.647Z,64.43
2023-05-01T01:08:05.700Z,64.30
2023-05-01T01:09:05.705Z,64.10
2023-05-01T01:10:05.746Z,64.00
2023-05-01T01:11:05.783Z,63.93
2023-05-01T01:12:05.836Z,64.05
2023-05-01T01:13:05.894Z,64.10
2023-05-01T01:14:05.893Z,64.12
2023-05-01T01:15:05.880Z,63.89
2023-05-01T01:16:05.889Z,63.87
2023-05-01T01:17:06.057Z,63.78
2023-05-01T01:18:06.039Z,63.77
2023-05-01T01:19:05.970Z,63.75
2023-05-01T01:20:05.985Z,63.72
2023-05-01T01:21:05.974Z,63.68
2023-05-01T01:22:05.990Z,63.68
2023-05-01T01:23:06.046Z,63.64
2023-05-01T01:24:06.049Z,63.71
2023-05-01T01:25:06.043Z,63.88
2023-05-01T01:26:06.054Z,63.90
2023-05-01T01:27:06.056Z,63.99
2023-05-01T01:28:06.158Z,64.15
2023-05-01T01:29:06.189Z,64.27
2023-05-01T01:30:06.233Z,64.49
2023-05-01T01:31:06.366Z,64.61
2023-05-01T01:32:06.303Z,64.72
2023-05-01T01:33:06.364Z,64.95
2023-05-01T01:34:06.383Z,64.83
2023-05-01T01:35:06.399Z,64.98
2023-05-01T01:36:06.461Z,64.85
2023-05-01T01:37:06.483Z,64.77
2023-05-01T01:38:06.489Z,64.69
2023-05-01T01:39:06.538Z,64.69
2023-05-01T01:40:06.621Z,64.88
2023-05-01T01:41:06.590Z,64.90
2023-05-01T01:42:06.659Z,64.96
2023-05-01T01:43:06.691Z,65.05
2023-05-01T01:44:06.703Z,65.08
2023-05-01T01:45:06.744Z,65.05
2023-05-01T01:46:06.835Z,65.06
2023-05-01T01:47:06.817Z,65.05
2023-05-01T01:48:06.836Z,65.07
2023-05-01T01:49:06.898Z,65.15
2023-05-01T01:50:06.950Z,65.28
2023-05-01T01:51:06.988Z,65.43
2023-05-01T01:52:07.014Z,65.50
2023-05-01T01:53:07.058Z,65.34
2023-05-01T01:54:07.078Z,65.49
2023-05-01T01:55:07.083Z,65.65
2023-05-01T01:56:07.083Z,65.83
2023-05-01T01:57:07.273Z,65.85
2023-05-01T01:58:07.158Z,65.83
2023-05-01T01:59:07.223Z,66.03
2023-05-01T02:00:07.199Z,66.01
2023-05-01T02:01:07.207Z,65.72
2023-05-01T02:02:07.272Z,65.41
2023-05-01T02:03:07.321Z,65.27
2023-05-01T02:04:07.433Z,65.12
2023-05-01T02:05:07.361Z,65.01
2023-05-01T02:06:07.483Z,65.02
2023-05-01T02:07:07.435Z,65.09
2023-05-01T02:08:07.451Z,65.03
2023-05-01T02:09:07.532Z,64.81
2023-05-01T02:10:07.515Z,64.68
2023-05-01T02:11:07.506Z,64.64
2023-05-01T02:12:07.523Z,64.42
2023-05-01T02:13:07.559Z,64.05
2023-05-01T02:14:07.593Z,63.99
2023-05-01T02:15:07.591Z,64.12
2023-05-01T02:16:07.740Z,64.11
2023-05-01T02:17:07.737Z,64.25
2023-05-01T02:18:07.686Z,64.12
2023-05-01T02:19:07.722Z,63.99
2023-05-01T02:20:07.700Z,63.99
2023-05-01T02:21:07.704Z,63.86
2023-05-01T02:22:07.715Z,63.89
2023-05-01T02:23:07.720Z,63.86
2023-05-01T02:24:07.711Z,63.75
2023-05-01T02:25:07.717Z,63.93
2023-05-01T02:26:07.750Z,63.92
2023-05-01T02:27:07.764Z,64.00
2023-05-01T02:28:07.847Z,64.17
2023-05-01T02:29:07.893Z,64.12
2023-05-01T02:30:07.928Z,64.24
2023-05-01T02:31:07.973Z,64.23
2023-05-01T02:32:07.984Z,64.15
2023-05-01T02:33:07.978Z,64.12
2023-05-01T02:34:08.003Z,63.94
2023-05-01T02:35:08.049Z,63.76
2023-05-01T02:36:08.042Z,63.76
2023-05-01T02:37:08.069Z,63.92
2023-05-01T02:38:08.045Z,64.00
2023-05-01T02:39:08.085Z,64.08
2023-05-01T02:40:08.148Z,64.03
2023-05-01T02:41:08.141Z,63.97
2023-05-01T02:42:08.129Z,63.81
2023-05-01T02:43:08.160Z,63.73
2023-05-01T02:44:08.264Z,63.66
2023-05-01T02:45:08.339Z,63.64
2023-05-01T02:46:08.401Z,63.65
2023-05-01T02:47:08.431Z,63.66
2023-05-01T02:48:08.501Z,63.45
2023-05-01T02:49:08.432Z,63.86
2023-05-01T02:50:08.428Z,64.42
2023-05-01T02:51:08.446Z,64.71
2023-05-01T02:52:08.502Z,64.60
2023-05-01T02:53:08.497Z,64.50
2023-05-01T02:54:08.553Z,64.27
2023-05-01T02:55:08.577Z,64.26
2023-05-01T02:56:08.629Z,64.02
2023-05-01T02:57:08.658Z,63.71
2023-05-01T02:58:08.644Z,63.63
2023-05-01T02:59:08.676Z,63.64
2023-05-01T03:00:08.695Z,63.66
2023-05-01T03:01:08.711Z,63.73
2023-05-01T03:02:08.709Z,63.74
2023-05-01T03:03:08.828Z,63.64
2023-05-01T03:04:08.862Z,63.41
2023-05-01T03:05:08.884Z,63.47
2023-05-01T03:06:08.974Z,64.11
2023-05-01T03:07:08.888Z,64.88
2023-05-01T03:08:08.937Z,65.28
2023-05-01T03:09:08.962Z,65.14
2023-05-01T03:10:08.987Z,64.80
2023-05-01T03:11:09.024Z,64.44
2023-05-01T03:12:09.078Z,64.20
2023-05-01T03:13:09.341Z,64.00
2023-05-01T03:14:09.123Z,63.45
2023-05-01T03:15:09.267Z,63.41
2023-05-01T03:16:09.220Z,63.30
2023-05-01T03:17:09.192Z,63.29
2023-05-01T03:18:09.345Z,63.53
2023-05-01T03:19:09.276Z,63.56
2023-05-01T03:20:09.283Z,63.64
2023-05-01T03:21:09.492Z,63.66
2023-05-01T03:22:09.401Z,63.76
2023-05-01T03:23:09.401Z,63.73
2023-05-01T03:24:09.463Z,63.63
2023-05-01T03:25:09.464Z,63.53
2023-05-01T03:26:09.499Z,63.38
2023-05-01T03:27:09.653Z,63.91
2023-05-01T03:28:09.580Z,64.95
2023-05-01T03:29:09.597Z,65.10
2023-05-01T03:30:09.612Z,64.95
2023-05-01T03:31:09.679Z,64.75
2023-05-01T03:32:09.725Z,64.44
2023-05-01T03:33:09.762Z,64.31
2023-05-01T03:34:09.781Z,64.09
2023-05-01T03:35:09.825Z,63.79
2023-05-01T03:36:09.783Z,63.57
2023-05-01T03:37:09.841Z,63.43
2023-05-01T03:38:09.882Z,63.30
2023-05-01T03:39:09.908Z,63.19
2023-05-01T03:40:09.985Z,63.25
2023-05-01T03:41:10.087Z,63.10
2023-05-01T03:42:10.075Z,63.11
2023-05-01T03:43:10.123Z,62.93
2023-05-01T03:44:10.157Z,63.34
2023-05-01T03:45:10.193Z,63.82
2023-05-01T03:46:10.220Z,64.03
2023-05-01T03:47:10.286Z,64.01
2023-05-01T03:48:10.751Z,63.81
2023-05-01T03:49:10.380Z,63.66
2023-05-01T03:50:10.435Z,63.78
2023-05-01T03:51:10.459Z,63.58
2023-05-01T03:52:10.503Z,63.40
2023-05-01T03:53:10.729Z,63.26
2023-05-01T03:54:10.592Z,63.10
2023-05-01T03:55:10.628Z,62.99
2023-05-01T03:56:10.631Z,63.02
2023-05-01T03:57:10.640Z,63.14
2023-05-01T03:58:10.718Z,63.06
2023-05-01T03:59:10.702Z,63.05
2023-05-01T04:00:10.762Z,63.18
2023-05-01T04:01:10.765Z,63.37
2023-05-01T04:02:10.836Z,63.58
2023-05-01T04:03:10.845Z,63.70
2023-05-01T04:04:11.007Z,64.02
2023-05-01T04:05:10.841Z,63.87
2023-05-01T04:06:10.936Z,63.77
2023-05-01T04:07:10.869Z,63.72
2023-05-01T04:08:10.930Z,63.52
2023-05-01T04:09:10.908Z,63.54
2023-05-01T04:10:10.955Z,63.90
2023-05-01T04:11:10.985Z,64.22
2023-05-01T04:12:11.042Z,64.13
2023-05-01T04:13:11.086Z,63.98
2023-05-01T04:14:11.078Z,63.92
2023-05-01T04:15:11.468Z,63.98
2023-05-01T04:16:11.237Z,63.93
2023-05-01T04:17:11.203Z,63.68
2023-05-01T04:18:11.287Z,63.49
2023-05-01T04:19:11.235Z,63.47
2023-05-01T04:20:11.281Z,63.69
2023-05-01T04:21:11.303Z,63.60
2023-05-01T04:22:11.311Z,63.68
2023-05-01T04:23:11.311Z,63.97
2023-05-01T04:24:11.351Z,63.93
2023-05-01T04:25:11.354Z,63.95
2023-05-01T04:26:11.480Z,63.96
2023-05-01T04:27:11.550Z,64.05
2023-05-01T04:28:11.571Z,64.07
2023-05-01T04:29:11.712Z,64.10
2023-05-01T04:30:11.608Z,64.21
2023-05-01T04:31:11.716Z,64.44
2023-05-01T04:32:11.671Z,64.60
2023-05-01T04:33:11.868Z,64.60
2023-05-01T04:34:11.677Z,64.56
2023-05-01T04:35:11.733Z,65.17
2023-05-01T04:36:11.735Z,65.34
2023-05-01T04:37:11.737Z,65.14
2023-05-01T04:38:11.762Z,65.15
2023-05-01T04:39:11.789Z,65.20
2023-05-01T04:40:11.979Z,65.17
2023-05-01T04:41:11.872Z,65.00
2023-05-01T04:42:11.838Z,64.90
2023-05-01T04:43:11.861Z,64.63
2023-05-01T04:44:11.868Z,64.78
2023-05-01T04:45:11.905Z,64.58
2023-05-01T04:46:11.979Z,64.58
2023-05-01T04:47:12.063Z,64.52
2023-05-01T04:48:12.123Z,64.45
2023-05-01T04:49:12.055Z,64.44
2023-05-01T04:50:12.103Z,64.49
2023-05-01T04:51:12.091Z,64.51
2023-05-01T04:52:12.125Z,64.63
2023-05-01T04:53:12.161Z,64.87
2023-05-01T04:54:12.181Z,64.87
2023-05-01T04:55:12.231Z,64.73
2023-05-01T04:56:12.222Z,64.58
2023-05-01T04:57:12.265Z,64.39
2023-05-01T04:58:12.268Z,64.63
2023-05-01T04:59:12.330Z,64.74
2023-05-01T05:00:12.370Z,64.78
2023-05-01T05:01:12.376Z,64.49
2023-05-01T05:02:12.481Z,64.18
2023-05-01T05:03:12.484Z,63.86
2023-05-01T05:04:12.602Z,63.86
2023-05-01T05:05:12.525Z,63.72
2023-05-01T05:06:12.550Z,63.63
2023-05-01T05:07:12.569Z,63.75
2023-05-01T05:08:12.613Z,63.52
2023-05-01T05:09:12.613Z,63.27
2023-05-01T05:10:12.652Z,63.17
2023-05-01T05:11:12.651Z,63.03
2023-05-01T05:13:12.716Z,62.91
2023-05-01T05:14:12.751Z,62.92
2023-05-01T05:15:12.760Z,62.84
2023-05-01T05:16:12.809Z,62.71
2023-05-01T05:17:12.813Z,62.69
2023-05-01T05:18:12.846Z,62.39
2023-05-01T05:19:12.889Z,62.20
2023-05-01T05:20:12.835Z,62.24
2023-05-01T05:21:12.936Z,61.91
2023-05-01T05:22:12.910Z,61.76
2023-05-01T05:23:12.909Z,61.49
2023-05-01T05:24:12.926Z,61.33
2023-05-01T05:25:12.930Z,61.27
2023-05-01T05:26:12.923Z,61.19
2023-05-01T05:27:12.956Z,61.12
2023-05-01T05:28:12.983Z,60.99
2023-05-01T05:29:13.020Z,60.78
2023-05-01T05:30:13.001Z,60.74
2023-05-01T05:31:13.013Z,61.07
2023-05-01T05:32:13.102Z,61.24
2023-05-01T05:33:13.138Z,61.34
2023-05-01T05:34:13.083Z,61.20
2023-05-01T05:35:13.139Z,61.05
2023-05-01T05:36:13.145Z,60.83
2023-05-01T05:37:13.143Z,60.94
2023-05-01T05:38:13.167Z,60.94
2023-05-01T05:39:13.186Z,60.69
2023-05-01T05:40:13.298Z,60.81
2023-05-01T05:41:13.211Z,61.11
2023-05-01T05:42:13.230Z,61.22
2023-05-01T05:43:13.294Z,61.25
2023-05-01T05:44:13.281Z,61.09
2023-05-01T05:45:13.292Z,60.87
2023-05-01T05:46:13.390Z,60.74
2023-05-01T05:47:13.337Z,60.50
2023-05-01T05:48:13.468Z,60.54
2023-05-01T05:49:13.492Z,60.43
2023-05-01T05:50:13.504Z,60.60
2023-05-01T05:51:13.504Z,60.72
2023-05-01T05:52:13.520Z,60.68
2023-05-01T05:53:13.558Z,60.61
2023-05-01T05:54:13.547Z,61.22
2023-05-01T05:55:13.580Z,61.34
2023-05-01T05:56:13.639Z,61.03
2023-05-01T05:57:13.659Z,60.83
2023-05-01T05:58:13.676Z,60.73
2023-05-01T05:59:14.844Z,60.80
2023-05-01T06:00:13.694Z,60.90
2023-05-01T06:01:13.688Z,60.91
2023-05-01T06:02:13.733Z,60.74
2023-05-01T06:03:13.762Z,60.73
2023-05-01T06:04:13.698Z,60.70
2023-05-01T06:05:13.740Z,60.74
2023-05-01T06:06:13.728Z,60.35
2023-05-01T06:07:13.624Z,60.01
2023-05-01T06:08:13.666Z,59.61
2023-05-01T06:09:13.657Z,59.46
2023-05-01T06:10:13.607Z,59.35
2023-05-01T06:11:13.653Z,59.14
2023-05-01T06:12:13.628Z,58.87
2023-05-01T06:13:14.751Z,58.76
2023-05-01T06:14:13.642Z,58.80
2023-05-01T06:15:13.613Z,58.61
2023-05-01T06:16:13.680Z,58.40
2023-05-01T06:17:13.606Z,58.31
2023-05-01T06:18:13.710Z,58.17
2023-05-01T06:19:13.569Z,58.18
2023-05-01T06:20:13.576Z,57.95
2023-05-01T06:21:13.578Z,57.89
2023-05-01T06:22:13.589Z,57.84
2023-05-01T06:23:13.563Z,57.84
2023-05-01T06:24:13.526Z,57.89
2023-05-01T06:25:13.562Z,58.09
2023-05-01T06:26:13.514Z,58.02
2023-05-01T06:27:13.533Z,58.23
2023-05-01T06:28:13.478Z,58.20
2023-05-01T06:29:13.508Z,58.07
2023-05-01T06:30:13.516Z,57.88
2023-05-01T06:31:13.551Z,58.00
2023-05-01T06:32:13.482Z,58.61
2023-05-01T06:33:13.562Z,58.92
2023-05-01T06:34:13.473Z,58.89
2023-05-01T06:35:13.467Z,58.67
2023-05-01T06:36:13.437Z,58.66
2023-05-01T06:37:13.476Z,58.56
2023-05-01T06:38:13.447Z,58.19
2023-05-01T06:39:13.425Z,58.26
2023-05-01T06:40:13.440Z,58.05
2023-05-01T06:41:13.527Z,57.45
2023-05-01T06:42:13.471Z,57.21
2023-05-01T06:43:13.424Z,56.97
2023-05-01T06:44:13.410Z,56.59
2023-05-01T06:45:13.543Z,56.28
2023-05-01T06:46:13.550Z,55.92
2023-05-01T06:47:13.608Z,55.91
2023-05-01T06:48:13.565Z,55.98
2023-05-01T06:49:13.598Z,55.91
2023-05-01T06:50:13.651Z,55.17
2023-05-01T06:51:13.623Z,55.06
2023-05-01T06:52:13.631Z,55.28
2023-05-01T06:53:13.677Z,55.24
2023-05-01T06:54:13.717Z,54.95
2023-05-01T06:55:13.719Z,54.73
2023-05-01T06:56:13.784Z,55.11
2023-05-01T06:57:13.801Z,54.95
2023-05-01T06:58:23.647Z,54.48
2023-05-01T06:59:14.788Z,54.54
2023-05-01T07:00:13.783Z,54.85
2023-05-01T07:01:13.799Z,54.58
2023-05-01T07:02:13.843Z,54.16
2023-05-01T07:03:13.843Z,53.81
2023-05-01T07:04:13.747Z,53.99
2023-05-01T07:05:13.739Z,54.28
2023-05-01T07:06:13.807Z,54.17
2023-05-01T07:07:13.766Z,54.37
2023-05-01T07:08:13.732Z,54.79
2023-05-01T07:09:13.719Z,54.73
2023-05-01T07:10:13.746Z,55.19
2023-05-01T07:11:13.703Z,54.97
2023-05-01T07:12:13.727Z,54.56
2023-05-01T07:13:13.762Z,54.56
2023-05-01T07:14:13.773Z,54.71
2023-05-01T07:15:13.825Z,55.00
2023-05-01T07:16:13.857Z,54.53
2023-05-01T07:17:13.879Z,54.83
2023-05-01T07:18:13.944Z,55.42
2023-05-01T07:19:13.940Z,55.43
2023-05-01T07:20:13.977Z,55.15
2023-05-01T07:21:13.956Z,54.72
2023-05-01T07:22:14.019Z,54.69
2023-05-01T07:23:13.990Z,54.81
2023-05-01T07:24:14.022Z,54.77
2023-05-01T07:25:14.094Z,54.34
2023-05-01T07:26:14.096Z,54.36
2023-05-01T07:27:14.105Z,54.78
2023-05-01T07:28:14.110Z,54.90
2023-05-01T07:29:14.104Z,54.90
2023-05-01T07:30:14.133Z,54.87
2023-05-01T07:31:14.174Z,54.74
2023-05-01T07:32:14.373Z,54.24
2023-05-01T07:33:14.304Z,54.48
2023-05-01T07:34:14.240Z,54.24
2023-05-01T07:35:14.250Z,53.84
2023-05-01T07:36:14.695Z,54.03
2023-05-01T07:37:14.340Z,53.98
2023-05-01T07:38:14.344Z,53.99
2023-05-01T07:39:14.385Z,53.85
2023-05-01T07:40:14.398Z,53.66
2023-05-01T07:41:14.439Z,53.63
2023-05-01T07:42:14.448Z,53.50
2023-05-01T07:43:14.506Z,53.19
2023-05-01T07:44:14.517Z,53.22
2023-05-01T07:45:14.573Z,53.17
2023-05-01T07:46:14.648Z,53.01
2023-05-01T07:47:14.630Z,52.92
2023-05-01T07:48:14.729Z,52.99
2023-05-01T07:49:14.682Z,52.70
2023-05-01T07:50:14.752Z,52.81
2023-05-01T07:51:14.702Z,52.92
2023-05-01T07:52:14.767Z,52.85
2023-05-01T07:53:14.782Z,53.26
2023-05-01T07:54:14.795Z,53.32
2023-05-01T07:55:14.806Z,53.33
2023-05-01T07:56:14.841Z,52.86
2023-05-01T07:57:14.899Z,52.93
2023-05-01T07:58:14.904Z,52.33
2023-05-01T07:59:14.983Z,51.94
2023-05-01T08:00:14.993Z,52.02
2023-05-01T08:01:15.026Z,51.67
2023-05-01T08:02:15.052Z,51.19
2023-05-01T08:03:15.137Z,51.30
2023-05-01T08:04:15.176Z,51.51
2023-05-01T08:05:15.054Z,51.81
2023-05-01T08:06:15.136Z,51.59
2023-05-01T08:07:15.129Z,51.34
2023-05-01T08:08:15.124Z,51.50
2023-05-01T08:09:15.154Z,51.02
2023-05-01T08:10:15.184Z,50.64
2023-05-01T08:11:15.209Z,50.19
2023-05-01T08:12:15.258Z,50.16
2023-05-01T08:13:15.255Z,50.17
2023-05-01T08:14:15.289Z,49.77
2023-05-01T08:15:15.369Z,49.61
2023-05-01T08:16:15.376Z,49.55
2023-05-01T08:17:15.357Z,49.75
2023-05-01T08:18:15.373Z,50.40
2023-05-01T08:19:15.405Z,50.82
2023-05-01T08:20:15.480Z,50.84
2023-05-01T08:21:15.538Z,50.68
2023-05-01T08:22:15.578Z,50.62
2023-05-01T08:23:15.584Z,50.58
2023-05-01T08:24:15.596Z,50.80
2023-05-01T08:25:15.636Z,50.60
2023-05-01T08:26:15.633Z,50.49
2023-05-01T08:27:15.708Z,50.10
2023-05-01T08:28:15.712Z,49.66
2023-05-01T08:29:15.831Z,49.63
2023-05-01T08:30:15.804Z,49.19
2023-05-01T08:31:15.924Z,48.95
2023-05-01T08:32:15.876Z,48.66
2023-05-01T08:33:15.924Z,48.66
2023-05-01T08:34:15.951Z,48.74
2023-05-01T08:35:16.000Z,48.43
2023-05-01T08:36:16.066Z,48.35
2023-05-01T08:37:16.045Z,48.64
2023-05-01T08:38:16.088Z,48.14
2023-05-01T08:39:16.086Z,47.49
2023-05-01T08:40:16.118Z,47.31
2023-05-01T08:41:16.234Z,47.48
2023-05-01T08:42:16.149Z,47.04
2023-05-01T08:43:16.177Z,47.00
2023-05-01T08:44:16.226Z,47.09
2023-05-01T08:45:16.240Z,47.00
2023-05-01T08:46:16.273Z,46.63
2023-05-01T08:47:16.275Z,46.23
2023-05-01T08:48:16.292Z,46.15
2023-05-01T08:49:16.299Z,45.91
2023-05-01T08:50:16.284Z,46.00
2023-05-01T08:51:16.364Z,46.61
2023-05-01T08:52:16.369Z,46.50
2023-05-01T08:53:16.395Z,46.84
2023-05-01T08:54:16.425Z,47.02
2023-05-01T08:55:16.498Z,46.97
2023-05-01T08:56:16.468Z,47.18
2023-05-01T08:57:16.504Z,46.74
2023-05-01T08:58:16.535Z,46.85
2023-05-01T08:59:16.571Z,46.94
2023-05-01T09:00:16.631Z,47.12
2023-05-01T09:01:16.755Z,46.93
2023-05-01T09:02:16.668Z,46.82
2023-05-01T09:03:16.830Z,46.79
2023-05-01T09:04:16.834Z,46.78
2023-05-01T09:05:16.780Z,47.00
2023-05-01T09:06:16.846Z,47.09
2023-05-01T09:07:16.818Z,47.45
2023-05-01T09:08:16.823Z,47.24
2023-05-01T09:09:16.844Z,47.22
2023-05-01T09:10:16.858Z,46.87
2023-05-01T09:11:16.900Z,46.59
2023-05-01T09:12:16.951Z,46.39
2023-05-01T09:13:16.937Z,46.36
2023-05-01T09:14:16.949Z,46.34
2023-05-01T09:15:17.023Z,46.06
2023-05-01T09:16:17.097Z,45.98
2023-05-01T09:17:17.092Z,46.22
2023-05-01T09:18:17.198Z,45.67
2023-05-01T09:19:17.157Z,45.74
2023-05-01T09:20:17.227Z,45.88
2023-05-01T09:21:17.230Z,45.55
2023-05-01T09:22:17.287Z,45.40
2023-05-01T09:23:17.301Z,45.29
2023-05-01T09:24:17.333Z,45.65
2023-05-01T09:25:17.296Z,45.60
2023-05-01T09:26:17.352Z,45.39
2023-05-01T09:27:17.390Z,45.67
2023-05-01T09:28:17.434Z,45.63
2023-05-01T09:29:17.459Z,45.25
2023-05-01T09:30:17.499Z,44.70
2023-05-01T09:31:17.532Z,44.03
2023-05-01T09:32:17.646Z,44.23
2023-05-01T09:33:17.657Z,43.87
2023-05-01T09:34:17.624Z,43.18
2023-05-01T09:35:17.687Z,43.30
2023-05-01T09:36:17.734Z,43.11
2023-05-01T09:37:17.789Z,42.63
2023-05-01T09:38:17.791Z,42.64
2023-05-01T09:39:17.843Z,42.76
2023-05-01T09:40:17.881Z,43.05
2023-05-01T09:41:17.909Z,43.41
2023-05-01T09:42:17.961Z,43.37
2023-05-01T09:43:17.955Z,42.71
2023-05-01T09:44:18.029Z,42.39
2023-05-01T09:45:18.037Z,42.37
2023-05-01T09:46:18.186Z,42.10
2023-05-01T09:47:18.152Z,42.04
2023-05-01T09:48:18.164Z,42.02
2023-05-01T09:49:18.205Z,42.26
2023-05-01T09:50:18.282Z,42.33
2023-05-01T09:51:18.287Z,41.34
2023-05-01T09:52:18.377Z,41.24
2023-05-01T09:53:18.316Z,41.26
2023-05-01T09:54:18.364Z,40.88
2023-05-01T09:55:18.344Z,40.48
2023-05-01T09:56:18.433Z,40.73
2023-05-01T09:57:18.456Z,41.00
2023-05-01T09:58:18.477Z,40.92
2023-05-01T09:59:18.478Z,40.86
2023-05-01T10:00:18.571Z,41.07
2023-05-01T10:01:18.583Z,41.00
2023-05-01T10:02:18.714Z,40.97
2023-05-01T10:03:18.739Z,40.81
2023-05-01T10:04:18.677Z,40.77
2023-05-01T10:05:18.711Z,40.37
2023-05-01T10:06:18.733Z,40.55
2023-05-01T10:07:18.723Z,40.19
2023-05-01T10:08:18.734Z,40.07
2023-05-01T10:09:18.783Z,39.94
2023-05-01T10:10:18.935Z,39.77
2023-05-01T10:11:18.822Z,39.89
2023-05-01T10:12:18.836Z,39.91
2023-05-01T10:13:18.857Z,39.62
2023-05-01T10:14:18.879Z,39.74
2023-05-01T10:15:25.516Z,39.58
2023-05-01T10:16:19.932Z,39.22
2023-05-01T10:17:19.340Z,39.45
2023-05-01T10:18:18.892Z,39.33
2023-05-01T10:19:18.875Z,39.53
2023-05-01T10:20:18.849Z,39.44
2023-05-01T10:21:18.843Z,39.65
2023-05-01T10:22:18.841Z,40.17
2023-05-01T10:23:18.853Z,40.74
2023-05-01T10:24:18.957Z,41.24
2023-05-01T10:25:18.846Z,41.91
2023-05-01T10:26:18.811Z,41.78
2023-05-01T10:27:18.856Z,41.50
2023-05-01T10:28:18.781Z,41.72
2023-05-01T10:29:18.818Z,42.43
2023-05-01T10:30:18.814Z,42.30
2023-05-01T10:31:18.918Z,41.72
2023-05-01T10:32:18.917Z,41.40
2023-05-01T10:33:18.974Z,40.77
2023-05-01T10:34:18.958Z,40.93
2023-05-01T10:35:18.979Z,40.76
2023-05-01T10:36:19.040Z,40.85
2023-05-01T10:37:19.026Z,41.01
2023-05-01T10:38:19.065Z,41.14
2023-05-01T10:39:19.104Z,40.80
2023-05-01T10:40:19.230Z,39.83
2023-05-01T10:41:19.164Z,39.96
2023-05-01T10:42:19.232Z,39.41
2023-05-01T10:43:19.268Z,39.10
2023-05-01T10:44:19.292Z,38.66
2023-05-01T10:45:19.345Z,38.14
2023-05-01T10:46:19.381Z,38.47
2023-05-01T10:47:19.398Z,38.59
2023-05-01T10:48:19.360Z,38.21
2023-05-01T10:49:19.404Z,37.50
2023-05-01T10:50:19.455Z,37.27
2023-05-01T10:51:19.521Z,36.91
2023-05-01T10:52:19.529Z,37.38
2023-05-01T10:53:19.563Z,37.31
2023-05-01T10:54:19.571Z,36.65
2023-05-01T10:55:19.665Z,37.05
2023-05-01T10:56:19.655Z,38.04
2023-05-01T10:57:19.709Z,38.02
2023-05-01T10:58:19.703Z,38.67
2023-05-01T10:59:19.706Z,38.61
2023-05-01T11:00:19.753Z,37.83
2023-05-01T11:01:19.861Z,37.36
2023-05-01T11:02:19.849Z,37.21
2023-05-01T11:03:19.890Z,38.11
2023-05-01T11:04:19.943Z,39.04
2023-05-01T11:05:26.231Z,38.95
2023-05-01T11:06:21.067Z,39.36
2023-05-01T11:07:19.956Z,39.04
2023-05-01T11:08:19.940Z,38.24
2023-05-01T11:09:19.951Z,37.56
2023-05-01T11:10:19.926Z,37.04
2023-05-01T11:11:19.940Z,36.69
2023-05-01T11:12:19.880Z,36.43
2023-05-01T11:13:19.897Z,36.16
2023-05-01T11:14:19.904Z,35.80
2023-05-01T11:15:19.888Z,35.62
2023-05-01T11:16:20.031Z,35.52
2023-05-01T11:17:19.862Z,35.80
2023-05-01T11:18:19.883Z,35.85
2023-05-01T11:19:19.879Z,35.69
2023-05-01T11:20:19.830Z,35.45
2023-05-01T11:21:19.863Z,35.85
2023-05-01T11:22:19.827Z,35.35
2023-05-01T11:23:19.873Z,35.36
2023-05-01T11:24:19.947Z,35.10
2023-05-01T11:25:19.980Z,34.73
2023-05-01T11:26:20.019Z,33.85
2023-05-01T11:27:20.062Z,34.41
2023-05-01T11:28:20.073Z,34.97
2023-05-01T11:29:20.115Z,34.90
2023-05-01T11:30:20.161Z,33.98
2023-05-01T11:31:20.380Z,34.18
2023-05-01T11:32:20.432Z,34.46
2023-05-01T11:33:20.347Z,33.67
2023-05-01T11:34:20.271Z,33.14
2023-05-01T11:35:20.328Z,33.30
2023-05-01T11:36:20.397Z,31.97
2023-05-01T11:37:20.383Z,33.23
2023-05-01T11:38:20.454Z,33.75
2023-05-01T11:39:20.556Z,33.83
2023-05-01T11:40:20.523Z,33.14
2023-05-01T11:41:20.523Z,33.07
2023-05-01T11:42:20.596Z,33.78
2023-05-01T11:43:20.588Z,34.47
2023-05-01T11:44:20.615Z,35.12
2023-05-01T11:45:20.623Z,34.70
2023-05-01T11:46:20.630Z,34.23
2023-05-01T11:47:20.716Z,34.35
2023-05-01T11:48:20.722Z,34.09
2023-05-01T11:49:20.756Z,33.87
2023-05-01T11:50:20.748Z,33.80
2023-05-01T11:51:21.344Z,33.57
2023-05-01T11:52:20.793Z,34.45
2023-05-01T11:53:20.858Z,34.31
2023-05-01T11:54:20.854Z,33.91
2023-05-01T11:55:20.917Z,34.25
2023-05-01T11:56:26.428Z,34.19
2023-05-01T11:57:21.937Z,34.59
2023-05-01T11:58:20.892Z,34.42
2023-05-01T11:59:20.920Z,34.40
2023-05-01T12:00:20.929Z,34.16
2023-05-01T12:01:20.906Z,33.54
2023-05-01T12:02:21.044Z,33.60
2023-05-01T12:03:21.152Z,34.32
2023-05-01T12:04:21.011Z,34.13
2023-05-01T12:05:20.886Z,33.94
2023-05-01T12:06:20.932Z,33.93
2023-05-01T12:07:20.904Z,33.99
2023-05-01T12:08:20.899Z,33.93
2023-05-01T12:09:20.880Z,33.77
2023-05-01T12:10:20.844Z,33.51
2023-05-01T12:11:20.818Z,33.81
2023-05-01T12:12:20.835Z,33.83
2023-05-01T12:13:20.870Z,33.73
2023-05-01T12:14:20.841Z,34.20
2023-05-01T12:15:20.812Z,34.08
2023-05-01T12:16:20.846Z,34.00
2023-05-01T12:17:20.802Z,33.86
2023-05-01T12:18:20.971Z,33.74
2023-05-01T12:19:21.842Z,33.89
2023-05-01T12:20:20.813Z,33.47
2023-05-01T12:21:20.775Z,33.26
2023-05-01T12:22:20.764Z,33.52
2023-05-01T12:23:20.769Z,32.89
2023-05-01T12:24:20.759Z,32.78
2023-05-01T12:25:20.735Z,33.05
2023-05-01T12:26:20.765Z,33.14
2023-05-01T12:27:20.750Z,33.01
2023-05-01T12:28:20.740Z,32.88
2023-05-01T12:29:20.701Z,32.68
2023-05-01T12:30:20.736Z,32.95
2023-05-01T12:31:20.750Z,33.08
2023-05-01T12:32:20.684Z,32.97
2023-05-01T12:33:20.779Z,33.12
2023-05-01T12:34:20.684Z,33.22
2023-05-01T12:35:20.671Z,33.29
2023-05-01T12:36:20.777Z,33.28
2023-05-01T12:37:20.792Z,33.39
2023-05-01T12:38:20.790Z,32.96
2023-05-01T12:39:20.842Z,32.90
2023-05-01T12:40:20.836Z,32.86
2023-05-01T12:41:20.915Z,32.65
2023-05-01T12:42:20.910Z,32.69
2023-05-01T12:43:20.937Z,32.64
2023-05-01T12:44:20.931Z,33.00
2023-05-01T12:45:20.977Z,33.03
2023-05-01T12:46:21.016Z,33.51
2023-05-01T12:47:20.999Z,33.66
2023-05-01T12:48:21.056Z,33.63
2023-05-01T12:49:21.099Z,33.30
2023-05-01T12:50:21.132Z,33.53
2023-05-01T12:51:21.134Z,33.62
2023-05-01T12:52:21.190Z,33.81
2023-05-01T12:53:21.186Z,33.46